createdAt,value
2019-05-15T00:01:40.709Z,11.50
2019-05-15T00:04:11.524Z,11.50
2019-05-15T00:06:45.375Z,11.40
2019-05-15T00:09:19.328Z,11.40
2019-05-15T00:11:53.321Z,11.30
2019-05-15T00:14:28.827Z,11.30
2019-05-15T00:17:02.486Z,11.30
2019-05-15T00:19:36.393Z,11.30
2019-05-15T00:22:10.261Z,11.30
2019-05-15T00:24:44.236Z,11.20
2019-05-15T00:27:20.130Z,11.20
2019-05-15T00:29:53.611Z,11.20
2019-05-15T00:32:28.278Z,11.20
2019-05-15T00:35:02.717Z,11.20
2019-05-15T00:37:38.555Z,11.20
2019-05-15T00:40:12.236Z,11.10
2019-05-15T00:42:46.054Z,11.10
2019-05-15T00:45:20.066Z,11.10
2019-05-15T00:47:53.792Z,11.00
2019-05-15T00:50:28.742Z,11.00
2019-05-15T00:53:02.980Z,11.00
2019-05-15T00:55:38.008Z,10.90
2019-05-15T00:58:11.895Z,10.90
2019-05-15T01:00:46.025Z,10.90
2019-05-15T01:03:19.950Z,10.80
2019-05-15T01:05:53.645Z,10.80
2019-05-15T01:08:28.540Z,10.80
2019-05-15T01:11:02.548Z,10.70
2019-05-15T01:13:38.615Z,10.70
2019-05-15T01:16:11.667Z,10.70
2019-05-15T01:18:45.630Z,10.60
2019-05-15T01:21:19.505Z,10.60
2019-05-15T01:23:53.455Z,10.60
2019-05-15T01:26:28.193Z,10.60
2019-05-15T01:29:02.187Z,10.50
2019-05-15T01:31:37.901Z,10.50
2019-05-15T01:34:11.392Z,10.40
2019-05-15T01:36:45.158Z,10.40
2019-05-15T01:39:19.044Z,10.40
2019-05-15T01:41:52.864Z,10.30
2019-05-15T01:44:28.560Z,10.30
2019-05-15T01:47:02.126Z,10.20
2019-05-15T01:49:38.244Z,10.20
2019-05-15T01:52:11.427Z,10.10
2019-05-15T01:54:45.093Z,10.10
2019-05-15T01:57:19.006Z,10.10
2019-05-15T01:59:57.308Z,10.00
2019-05-15T02:02:28.303Z,10.00
2019-05-15T02:05:02.130Z,10.00
2019-05-15T02:07:35.985Z,9.90
2019-05-15T02:10:10.550Z,9.90
2019-05-15T02:12:44.440Z,9.90
2019-05-15T02:15:19.101Z,9.90
2019-05-15T02:17:53.308Z,9.90
2019-05-15T02:20:29.165Z,9.80
2019-05-15T02:23:02.542Z,9.80
2019-05-15T02:25:38.580Z,9.80
2019-05-15T02:28:12.212Z,9.80
2019-05-15T02:30:49.983Z,9.80
2019-05-15T02:33:21.505Z,9.70
2019-05-15T02:35:55.347Z,9.70
2019-05-15T02:38:29.737Z,9.70
2019-05-15T02:41:03.896Z,9.70
2019-05-15T02:43:38.997Z,9.60
2019-05-15T02:46:13.198Z,9.60
2019-05-15T02:48:48.832Z,9.60
2019-05-15T02:51:22.302Z,9.60
2019-05-15T02:53:58.572Z,9.50
2019-05-15T02:56:31.801Z,9.50
2019-05-15T02:59:08.995Z,9.40
2019-05-15T03:01:40.944Z,9.40
2019-05-15T03:04:15.278Z,9.40
2019-05-15T03:06:49.742Z,9.30
2019-05-15T03:09:23.978Z,9.30
2019-05-15T03:11:58.631Z,9.30
2019-05-15T03:14:32.838Z,9.20
2019-05-15T03:17:09.497Z,9.20
2019-05-15T03:19:42.084Z,9.20
2019-05-15T03:22:15.837Z,9.10
2019-05-15T03:24:50.462Z,9.10
2019-05-15T03:27:24.544Z,9.10
2019-05-15T03:29:59.422Z,9.00
2019-05-15T03:32:43.623Z,9.00
2019-05-15T03:35:14.544Z,8.90
2019-05-15T03:37:49.013Z,8.90
2019-05-15T03:40:21.066Z,8.90
2019-05-15T03:42:54.750Z,8.80
2019-05-15T03:45:29.675Z,8.80
2019-05-15T03:48:03.884Z,8.80
2019-05-15T03:50:40.083Z,8.80
2019-05-15T03:53:13.405Z,8.80
2019-05-15T03:55:49.044Z,8.70
2019-05-15T03:58:22.520Z,8.70
2019-05-15T04:00:59.859Z,8.70
2019-05-15T04:03:31.708Z,8.70
2019-05-15T04:06:05.501Z,8.70
2019-05-15T04:08:39.535Z,8.70
2019-05-15T04:11:13.715Z,8.60
2019-05-15T04:13:49.956Z,8.60
2019-05-15T04:16:22.847Z,8.60
2019-05-15T04:18:59.273Z,8.70
2019-05-15T04:21:31.977Z,8.70
2019-05-15T04:24:09.526Z,8.70
2019-05-15T04:26:45.109Z,8.70
2019-05-15T04:29:19.593Z,8.80
2019-05-15T04:32:01.139Z,8.90
2019-05-15T04:34:29.135Z,9.00
2019-05-15T04:37:03.154Z,9.00
2019-05-15T04:39:39.738Z,9.10
2019-05-15T04:42:12.254Z,9.30
2019-05-15T04:44:45.988Z,9.40
2019-05-15T04:47:20.778Z,9.50
2019-05-15T04:49:54.410Z,9.60
2019-05-15T04:52:30.392Z,9.80
2019-05-15T04:55:03.901Z,10.00
2019-05-15T04:57:40.053Z,10.20
2019-05-15T05:00:13.534Z,10.40
2019-05-15T05:02:49.616Z,10.80
2019-05-15T05:05:22.771Z,11.10
2019-05-15T05:07:59.666Z,11.50
2019-05-15T05:10:33.234Z,11.90
2019-05-15T05:13:08.922Z,12.40
2019-05-15T05:15:42.754Z,12.80
2019-05-15T05:18:18.840Z,13.30
2019-05-15T05:20:51.885Z,13.70
2019-05-15T05:23:25.668Z,14.20
2019-05-15T05:25:59.416Z,14.60
2019-05-15T05:28:33.668Z,15.00
2019-05-15T05:31:08.352Z,15.40
2019-05-15T05:33:42.490Z,15.70
2019-05-15T05:36:18.350Z,16.00
2019-05-15T05:38:52.012Z,16.30
2019-05-15T05:41:27.959Z,16.50
2019-05-15T05:44:01.090Z,16.60
2019-05-15T05:46:35.011Z,16.80
2019-05-15T05:49:08.839Z,16.90
2019-05-15T05:51:42.472Z,17.10
2019-05-15T05:54:18.232Z,17.30
2019-05-15T05:56:51.468Z,17.40
2019-05-15T05:59:25.237Z,17.60
2019-05-15T06:01:59.136Z,17.80
2019-05-15T06:04:33.194Z,17.90
2019-05-15T06:07:13.829Z,18.10
2019-05-15T06:09:42.398Z,18.30
2019-05-15T06:12:18.695Z,18.40
2019-05-15T06:14:51.459Z,18.60
2019-05-15T06:17:25.190Z,18.70
2019-05-15T06:19:58.894Z,18.90
2019-05-15T06:22:32.646Z,19.00
2019-05-15T06:25:10.642Z,19.10
2019-05-15T06:27:42.063Z,19.30
2019-05-15T06:30:26.017Z,19.40
2019-05-15T06:33:04.617Z,19.50
2019-05-15T06:35:31.234Z,19.60
2019-05-15T06:38:03.338Z,19.80
2019-05-15T06:40:39.359Z,19.90
2019-05-15T06:43:12.438Z,20.10
2019-05-15T06:45:48.459Z,20.20
2019-05-15T06:48:21.414Z,20.30
2019-05-15T06:50:55.134Z,20.40
2019-05-15T06:53:29.142Z,20.50
2019-05-15T06:56:02.999Z,20.70
2019-05-15T06:58:38.474Z,20.90
2019-05-15T07:01:12.281Z,21.10
2019-05-15T07:03:48.248Z,21.30
2019-05-15T07:06:21.404Z,21.60
2019-05-15T07:08:55.330Z,21.80
2019-05-15T07:11:29.086Z,22.10
2019-05-15T07:14:02.793Z,22.30
2019-05-15T07:16:38.787Z,22.40
2019-05-15T07:19:12.140Z,22.60
2019-05-15T07:21:45.886Z,22.80
2019-05-15T07:24:20.239Z,22.90
2019-05-15T07:26:54.045Z,23.20
2019-05-15T07:29:29.200Z,23.50
2019-05-15T07:32:03.359Z,23.70
2019-05-15T07:34:37.848Z,23.80
2019-05-15T07:37:12.047Z,24.10
2019-05-15T07:39:48.593Z,24.20
2019-05-15T07:42:22.367Z,24.50
2019-05-15T07:44:58.711Z,24.70
2019-05-15T07:47:31.756Z,25.00
2019-05-15T07:50:08.726Z,25.20
2019-05-15T07:52:43.207Z,25.40
2019-05-15T07:55:18.454Z,25.60
2019-05-15T07:57:52.443Z,25.70
2019-05-15T08:00:28.825Z,25.90
2019-05-15T08:03:02.716Z,26.10
2019-05-15T08:05:39.466Z,26.20
2019-05-15T08:08:11.913Z,26.30
2019-05-15T08:10:45.612Z,26.30
2019-05-15T08:13:19.502Z,26.30
2019-05-15T08:15:53.247Z,26.10
2019-05-15T08:18:28.628Z,26.00
2019-05-15T08:21:02.519Z,25.80
2019-05-15T08:23:38.886Z,25.80
2019-05-15T08:26:11.755Z,25.80
2019-05-15T08:28:45.494Z,25.90
2019-05-15T08:31:19.246Z,25.90
2019-05-15T08:33:53.532Z,25.70
2019-05-15T08:36:27.695Z,25.70
2019-05-15T08:39:02.895Z,25.80
2019-05-15T08:41:38.838Z,26.00
2019-05-15T08:44:12.003Z,26.10
2019-05-15T08:46:47.838Z,26.40
2019-05-15T08:49:21.130Z,26.50
2019-05-15T08:51:54.872Z,26.80
2019-05-15T08:54:29.175Z,27.20
2019-05-15T08:57:03.089Z,27.40
2019-05-15T08:59:38.105Z,27.40
2019-05-15T09:02:12.399Z,27.30
2019-05-15T09:04:48.489Z,27.30
2019-05-15T09:07:21.460Z,27.40
2019-05-15T09:09:55.303Z,27.50
2019-05-15T09:12:29.582Z,27.60
2019-05-15T09:15:04.034Z,27.60
2019-05-15T09:17:39.809Z,27.50
2019-05-15T09:20:14.467Z,27.40
2019-05-15T09:22:49.005Z,27.40
2019-05-15T09:25:23.486Z,27.50
2019-05-15T09:27:57.956Z,27.60
2019-05-15T09:30:31.866Z,27.80
2019-05-15T09:33:05.583Z,28.00
2019-05-15T09:35:39.455Z,28.00
2019-05-15T09:38:13.408Z,27.90
2019-05-15T09:40:50.161Z,27.60
2019-05-15T09:43:22.599Z,27.40
2019-05-15T09:45:58.345Z,27.30
2019-05-15T09:48:31.760Z,27.10
2019-05-15T09:51:05.556Z,26.80
2019-05-15T09:53:39.722Z,26.50
2019-05-15T09:56:13.440Z,26.40
2019-05-15T09:58:48.963Z,26.40
2019-05-15T10:01:22.474Z,26.30
2019-05-15T10:03:56.409Z,26.30
2019-05-15T10:06:30.132Z,26.20
2019-05-15T10:09:08.854Z,26.20
2019-05-15T10:11:41.326Z,26.00
2019-05-15T10:14:14.996Z,26.00
2019-05-15T10:16:49.342Z,26.00
2019-05-15T10:19:23.146Z,26.00
2019-05-15T10:21:59.354Z,26.20
2019-05-15T10:24:32.313Z,26.40
2019-05-15T10:27:08.602Z,26.50
2019-05-15T10:29:41.598Z,26.60
2019-05-15T10:32:15.324Z,26.70
2019-05-15T10:34:49.104Z,26.90
2019-05-15T10:37:22.761Z,27.00
2019-05-15T10:39:58.963Z,27.20
2019-05-15T10:42:32.698Z,27.10
2019-05-15T10:45:08.361Z,27.00
2019-05-15T10:47:42.485Z,26.80
2019-05-15T10:50:19.083Z,26.60
2019-05-15T10:52:53.200Z,26.50
2019-05-15T10:55:28.891Z,26.50
2019-05-15T10:58:02.293Z,26.60
2019-05-15T11:00:36.090Z,26.80
2019-05-15T11:03:09.867Z,26.80
2019-05-15T11:05:45.720Z,26.90
2019-05-15T11:08:19.269Z,27.00
2019-05-15T11:10:53.271Z,27.20
2019-05-15T11:13:28.881Z,27.30
2019-05-15T11:16:02.481Z,27.50
2019-05-15T11:18:39.105Z,27.30
2019-05-15T11:21:11.518Z,27.00
2019-05-15T11:23:45.268Z,26.50
2019-05-15T11:26:19.443Z,26.10
2019-05-15T11:28:53.659Z,25.70
2019-05-15T11:31:28.635Z,25.50
2019-05-15T11:34:02.643Z,25.20
2019-05-15T11:36:38.658Z,25.10
2019-05-15T11:39:11.675Z,25.10
2019-05-15T11:41:45.374Z,25.00
2019-05-15T11:44:19.102Z,24.90
2019-05-15T11:46:52.957Z,24.90
2019-05-15T11:49:29.083Z,24.70
2019-05-15T11:52:02.305Z,24.60
2019-05-15T11:54:38.397Z,24.50
2019-05-15T11:57:11.464Z,24.20
2019-05-15T11:59:46.212Z,24.10
2019-05-15T12:02:20.538Z,24.10
2019-05-15T12:04:54.253Z,24.20
2019-05-15T12:07:29.030Z,24.40
2019-05-15T12:10:03.602Z,24.50
2019-05-15T12:12:38.592Z,24.70
2019-05-15T12:15:13.378Z,24.80
2019-05-15T12:17:48.526Z,24.90
2019-05-15T12:20:23.146Z,25.10
2019-05-15T12:22:59.256Z,25.20
2019-05-15T12:25:32.240Z,25.20
2019-05-15T12:28:09.116Z,25.30
2019-05-15T12:30:41.619Z,25.40
2019-05-15T12:33:18.181Z,25.60
2019-05-15T12:35:51.253Z,25.60
2019-05-15T12:38:25.009Z,25.50
2019-05-15T13:01:43.345Z,24.70
2019-05-15T13:04:17.037Z,24.80
2019-05-15T13:07:11.564Z,24.80
2019-05-15T13:09:27.766Z,24.80
2019-05-15T13:12:02.025Z,24.70
2019-05-15T13:14:35.873Z,24.50
2019-05-15T13:17:10.010Z,24.50
2019-05-15T13:19:43.742Z,24.30
2019-05-15T13:22:24.382Z,24.10
2019-05-15T13:24:53.121Z,24.00
2019-05-15T13:27:26.855Z,23.90
2019-05-15T13:30:00.528Z,23.80
2019-05-15T13:32:34.240Z,23.70
2019-05-15T13:35:09.917Z,23.60
2019-05-15T13:37:43.752Z,23.60
2019-05-15T13:40:18.591Z,23.60
2019-05-15T13:42:52.870Z,23.60
2019-05-15T13:45:28.800Z,23.60
2019-05-15T13:48:01.981Z,23.60
2019-05-15T13:50:35.838Z,23.50
2019-05-15T13:53:11.272Z,23.30
2019-05-15T13:55:44.944Z,23.00
2019-05-15T13:58:18.575Z,22.80
2019-05-15T14:00:52.377Z,22.60
2019-05-15T14:03:28.275Z,22.50
2019-05-15T14:06:01.467Z,22.50
2019-05-15T14:08:38.191Z,22.60
2019-05-15T14:11:10.679Z,22.60
2019-05-15T14:13:44.415Z,22.60
2019-05-15T14:16:19.290Z,22.60
2019-05-15T14:18:53.523Z,22.60
2019-05-15T14:21:28.507Z,22.60
2019-05-15T14:24:02.425Z,22.50
2019-05-15T14:26:36.523Z,22.40
2019-05-15T14:29:10.178Z,22.30
2019-05-15T14:31:43.963Z,22.10
2019-05-15T14:34:18.615Z,22.00
2019-05-15T14:36:53.948Z,21.80
2019-05-15T14:39:28.056Z,21.80
2019-05-15T14:42:04.635Z,21.70
2019-05-15T14:44:38.698Z,21.70
2019-05-15T14:47:12.731Z,21.70
2019-05-15T14:49:49.271Z,21.60
2019-05-15T14:52:21.941Z,21.50
2019-05-15T14:54:55.682Z,21.40
2019-05-15T14:57:29.648Z,21.30
2019-05-15T15:00:03.780Z,21.30
2019-05-15T15:02:39.010Z,21.40
2019-05-15T15:05:13.052Z,21.40
2019-05-15T15:07:49.022Z,21.40
2019-05-15T15:10:23.150Z,21.40
2019-05-15T15:12:58.525Z,21.40
2019-05-15T15:15:32.304Z,21.40
2019-05-15T15:18:08.035Z,21.50
2019-05-15T15:20:41.463Z,21.50
2019-05-15T15:23:15.096Z,21.50
2019-05-15T15:25:48.794Z,21.50
2019-05-15T15:28:22.511Z,21.50
2019-05-15T15:30:58.105Z,21.50
2019-05-15T15:33:31.635Z,21.40
2019-05-15T15:36:05.413Z,21.40
2019-05-15T15:38:43.780Z,21.30
2019-05-15T15:41:14.496Z,21.30
2019-05-15T15:43:48.578Z,21.30
2019-05-15T15:46:22.563Z,21.40
2019-05-15T15:48:59.076Z,21.40
2019-05-15T15:51:31.661Z,21.50
2019-05-15T15:54:05.375Z,21.50
2019-05-15T15:56:39.346Z,21.60
2019-05-15T15:59:13.667Z,21.60
2019-05-15T16:01:49.361Z,21.60
2019-05-15T16:04:22.638Z,21.60
2019-05-15T16:06:58.734Z,21.60
2019-05-15T16:09:31.721Z,21.60
2019-05-15T16:12:05.538Z,21.60
2019-05-15T16:14:39.215Z,21.50
2019-05-15T16:17:12.927Z,21.50
2019-05-15T16:19:48.981Z,21.50
2019-05-15T16:22:21.911Z,21.60
2019-05-15T16:24:58.741Z,21.50
2019-05-15T16:27:31.360Z,21.40
2019-05-15T16:30:08.252Z,21.30
2019-05-15T16:32:42.079Z,21.20
2019-05-15T16:35:18.263Z,21.10
2019-05-15T16:37:51.745Z,20.90
2019-05-15T16:40:25.749Z,20.90
2019-05-15T16:42:59.710Z,20.90
2019-05-15T16:45:34.552Z,20.80
2019-05-15T16:48:09.467Z,20.80
2019-05-15T16:50:48.561Z,20.80
2019-05-15T16:53:21.934Z,20.80
2019-05-15T16:55:55.817Z,20.70
2019-05-15T16:58:29.904Z,20.60
2019-05-15T17:01:03.995Z,20.50
2019-05-15T17:03:38.182Z,20.50
2019-05-15T17:06:12.600Z,20.40
2019-05-15T17:08:48.864Z,20.40
2019-05-15T17:11:25.681Z,20.30
2019-05-15T17:14:05.044Z,20.20
2019-05-15T17:16:38.747Z,20.20
2019-05-15T17:19:14.591Z,20.10
2019-05-15T17:21:48.321Z,20.10
2019-05-15T17:24:22.661Z,19.90
2019-05-15T17:26:59.301Z,19.80
2019-05-15T17:29:31.743Z,19.70
2019-05-15T17:32:05.527Z,19.60
2019-05-15T17:34:39.245Z,19.50
2019-05-15T17:37:12.891Z,19.50
2019-05-15T17:39:48.467Z,19.40
2019-05-15T17:42:21.804Z,19.40
2019-05-15T17:44:57.840Z,19.30
2019-05-15T17:47:30.938Z,19.30
2019-05-15T17:50:05.200Z,19.20
2019-05-15T17:52:40.125Z,19.20
2019-05-15T17:55:13.925Z,19.10
2019-05-15T17:57:54.609Z,19.10
2019-05-15T18:00:23.097Z,19.10
2019-05-15T18:02:57.209Z,19.00
2019-05-15T18:05:31.063Z,18.90
2019-05-15T18:08:04.776Z,18.80
2019-05-15T18:10:38.628Z,18.70
2019-05-15T18:13:12.205Z,18.60
2019-05-15T18:15:45.931Z,18.60
2019-05-15T18:18:19.593Z,18.50
2019-05-15T18:20:53.278Z,18.40
2019-05-15T18:23:26.998Z,18.30
2019-05-15T18:26:00.973Z,18.30
2019-05-15T18:28:34.630Z,18.20
2019-05-15T18:31:08.999Z,18.20
2019-05-15T18:33:53.477Z,18.10
2019-05-15T18:36:18.442Z,18.00
2019-05-15T18:38:52.140Z,17.90
2019-05-15T18:41:25.833Z,17.90
2019-05-15T18:43:59.506Z,17.80
2019-05-15T18:46:33.263Z,17.70
2019-05-15T18:49:07.155Z,17.70
2019-05-15T18:51:40.851Z,17.60
2019-05-15T18:54:14.550Z,17.50
2019-05-15T18:56:48.982Z,17.50
2019-05-15T18:59:22.902Z,17.40
2019-05-15T19:01:58.662Z,17.30
2019-05-15T19:04:32.353Z,17.30
2019-05-15T19:07:06.057Z,17.20
2019-05-15T19:09:39.810Z,17.20
2019-05-15T19:12:13.983Z,17.10
2019-05-15T19:14:49.386Z,17.00
2019-05-15T19:17:23.159Z,16.90
2019-05-15T19:19:58.668Z,16.90
2019-05-15T19:22:32.170Z,16.80
2019-05-15T19:25:08.589Z,16.70
2019-05-15T19:27:41.679Z,16.70
2019-05-15T19:30:15.681Z,16.60
2019-05-15T19:32:49.345Z,16.50
2019-05-15T19:35:23.512Z,16.50
2019-05-15T19:37:58.481Z,16.40
2019-05-15T19:40:32.539Z,16.40
2019-05-15T19:43:06.284Z,16.30
2019-05-15T19:45:39.973Z,16.30
2019-05-15T19:48:13.741Z,16.20
2019-05-15T19:50:54.469Z,16.20
2019-05-15T19:53:28.428Z,16.10
2019-05-15T19:56:02.404Z,16.00
2019-05-15T19:58:36.510Z,16.00
2019-05-15T20:01:10.389Z,15.90
2019-05-15T20:03:52.247Z,15.90
2019-05-15T20:06:19.486Z,15.80
2019-05-15T20:08:53.704Z,15.70
2019-05-15T20:11:29.519Z,15.70
2019-05-15T20:14:03.981Z,15.60
2019-05-15T20:16:38.828Z,15.60
2019-05-15T20:19:13.146Z,15.50
2019-05-15T20:21:47.278Z,15.40
2019-05-15T20:24:20.994Z,15.40
2019-05-15T20:26:54.692Z,15.30
2019-05-15T20:29:28.924Z,15.30
2019-05-15T20:32:02.882Z,15.20
2019-05-15T20:34:37.938Z,15.20
2019-05-15T20:37:12.107Z,15.20
2019-05-15T20:39:45.736Z,15.10
2019-05-15T20:42:19.661Z,15.10
2019-05-15T20:44:53.716Z,15.00
2019-05-15T20:47:28.063Z,15.00
2019-05-15T20:50:02.133Z,14.90
2019-05-15T20:52:35.913Z,14.90
2019-05-15T20:55:09.796Z,14.90
2019-05-15T20:57:43.631Z,14.80
2019-05-15T21:00:19.187Z,14.80
2019-05-15T21:02:53.484Z,14.80
2019-05-15T21:05:27.843Z,14.70
2019-05-15T21:08:01.890Z,14.70
2019-05-15T21:10:42.760Z,14.60
2019-05-15T21:13:14.134Z,14.60
2019-05-15T21:15:48.511Z,14.60
2019-05-15T21:18:24.034Z,14.50
2019-05-15T21:20:57.724Z,14.50
2019-05-15T21:23:31.452Z,14.40
2019-05-15T21:26:07.850Z,14.40
2019-05-15T21:28:40.850Z,14.30
2019-05-15T21:31:15.082Z,14.30
2019-05-15T21:33:50.440Z,14.20
2019-05-15T21:36:24.352Z,14.20
2019-05-15T21:38:58.598Z,14.10
2019-05-15T21:41:32.631Z,14.10
2019-05-15T21:44:08.593Z,14.00
2019-05-15T21:46:41.752Z,14.00
2019-05-15T21:49:15.626Z,13.90
2019-05-15T21:51:49.590Z,13.90
2019-05-15T21:54:23.324Z,13.90
2019-05-15T21:57:12.851Z,13.80
2019-05-15T21:59:32.768Z,13.80
2019-05-15T22:02:06.614Z,13.80
2019-05-15T22:04:51.321Z,13.70
2019-05-15T22:07:17.666Z,13.70
2019-05-15T22:09:51.419Z,13.60
2019-05-15T22:12:25.118Z,13.60
2019-05-15T22:14:58.878Z,13.60
2019-05-15T22:17:32.604Z,13.60
2019-05-15T22:20:08.725Z,13.50
2019-05-15T22:22:42.807Z,13.50
2019-05-15T22:25:19.029Z,13.50
2019-05-15T22:27:53.000Z,13.50
2019-05-15T22:30:29.876Z,13.50
2019-05-15T22:33:02.989Z,13.40
2019-05-15T22:35:37.713Z,13.40
2019-05-15T22:38:12.568Z,13.40
2019-05-15T22:40:48.411Z,13.40
2019-05-15T22:43:21.466Z,13.40
2019-05-15T22:45:55.088Z,13.40
2019-05-15T22:48:29.021Z,13.30
2019-05-15T22:51:02.837Z,13.30
2019-05-15T22:53:38.259Z,13.30
2019-05-15T22:56:12.393Z,13.30
2019-05-15T22:58:47.996Z,13.30
2019-05-15T23:01:21.534Z,13.20
2019-05-15T23:03:55.305Z,13.20
2019-05-15T23:06:29.042Z,13.20
2019-05-15T23:09:02.736Z,13.20
2019-05-15T23:11:39.076Z,13.10
2019-05-15T23:14:12.088Z,13.20
2019-05-15T23:16:48.154Z,13.10
2019-05-15T23:19:21.714Z,13.10
2019-05-15T23:21:55.560Z,13.10
2019-05-15T23:24:29.297Z,13.10
2019-05-15T23:27:03.097Z,13.00
2019-05-15T23:29:38.537Z,13.00
2019-05-15T23:32:12.273Z,13.00
2019-05-15T23:34:45.899Z,13.00
2019-05-15T23:37:19.723Z,13.00
2019-05-15T23:39:53.391Z,12.90
2019-05-15T23:42:29.228Z,12.90
2019-05-15T23:45:02.609Z,12.90
2019-05-15T23:47:38.425Z,12.90
2019-05-15T23:50:11.902Z,12.90
2019-05-15T23:52:45.702Z,12.90
2019-05-15T23:55:19.645Z,12.90
2019-05-15T23:57:53.574Z,12.80
